Thunderstorms From: 20-05-2018 15:00 Until: 21-05-2018 15:00 warning for: Thunderstorms Level: Yellow info button

Although rather usual in this region, locally or potentially dangerous phenomena are expected. (such as local winds, summer thunderstorms, rising streams or high waves) Be aware and pay attention to the latest weather updates, especially if you carry out activities exposed to weather or close to a stream or shoreline. 


Meteo18 Weather Cam more information Meteo18 Weather Cam


warning for Thunderstorms more information blitzortung!


Rain radar more information rain snow radar


Visit our other weather sites:

Template documentation
and downloads

And another site



Weather Underground History page Text

Daily Summary for December 26, 2017 Units:  Metric    English   Both
« Previous Day
Next Day »
Daily Weekly Monthly Yearly Custom
  High: Low: Average:
Temperature: -17.8 °C -17.1 °C -14.4 °C
Dew Point: -17.8 °C -17.3 °C -15.7 °C
Humidity: Humidity % 79 % 85 %
Wind Speed: 0 km/h 2.6 km/h 22.5 km/h
Wind Gust: 0 km/h - -
Wind:- - SSW
Pressure: 0 hPa 33650.1 hPa -
Precipitation: 12.7 mm    
Historical Graphs
 
 
Tabular Data for December 26, 2017
Time Temperature Dew Point Pressure Wind Wind Speed Wind Gust Humidity Rainfall Rate (Hourly)
-17.8 °C -17.8 °C 0 hPa Calm     Humidity % 0 mm
00:02 -17.1 °C -17.3 °C 34246 hPa South 2.6 km/h 10.3 km/h 97 % 0 mm
00:12 -16.9 °C -17.1 °C 34246 hPa SSW 2.6 km/h 10.3 km/h 97 % 0 mm
00:17 -16.8 °C -17.1 °C 34246 hPa SSE 2.6 km/h 15.6 km/h 97 % 0 mm
00:22 -16.8 °C -17.1 °C 34246 hPa SSW 2.6 km/h 15.6 km/h 97 % 0 mm
00:32 -16.7 °C -17.1 °C 34235.8 hPa South 5.1 km/h 15.6 km/h 96 % 0 mm
00:42 -16.6 °C -17 °C 34235.8 hPa South 5.1 km/h 10.3 km/h 95 % 0 mm
00:47 -16.6 °C -16.9 °C 34235.8 hPa SSW 5.1 km/h 12.9 km/h 95 % 0 mm
00:52 -16.6 °C -17.1 °C 34222.3 hPa South 7.7 km/h 12.9 km/h 94 % 0 mm
00:57 -16.6 °C -17.1 °C 34222.3 hPa SW 7.7 km/h 12.9 km/h 94 % 0 mm
01:02 -16.5 °C -17 °C 34212.1 hPa South 10.3 km/h 10.3 km/h 94 % 0 mm
01:12 -16.4 °C -16.9 °C 34212.1 hPa SW 10.3 km/h 12.9 km/h 93 % 0 mm
01:17 -16.3 °C -17 °C 34212.1 hPa SW 10.3 km/h 15.6 km/h 92 % 0 mm
01:27 -16.1 °C -16.8 °C 34198.6 hPa WSW 5.1 km/h 15.6 km/h 91 % 0 mm
01:32 -16.1 °C -16.9 °C 34198.6 hPa South 15.6 km/h 20.8 km/h 90 % 0 mm
01:37 -16.1 °C -16.9 °C 34198.6 hPa SSW 15.6 km/h 20.8 km/h 90 % 0 mm
01:42 -16.1 °C -16.9 °C 34198.6 hPa SSW 7.7 km/h 20.8 km/h 90 % 0 mm
01:47 -16.1 °C -16.9 °C 34198.6 hPa SSW 7.7 km/h 20.8 km/h 90 % 0 mm
01:52 -16 °C -16.8 °C 34188.4 hPa SW 5.1 km/h 15.6 km/h 90 % 0 mm
01:57 -16 °C -16.8 °C 34188.4 hPa SW 7.7 km/h 18.2 km/h 90 % 0 mm
02:02 -15.9 °C -16.8 °C 34188.4 hPa SSW 10.3 km/h 18.2 km/h 89 % 0 mm
02:12 -15.4 °C -16.5 °C 34178.3 hPa SSE 18.2 km/h 18.2 km/h 87 % 0 mm
02:17 -15.3 °C -16.4 °C 34178.3 hPa SW 20.8 km/h 31.1 km/h 86 % 0 mm
02:22 -15.2 °C -16.5 °C 34178.3 hPa South 10.3 km/h 31.1 km/h 85 % 0 mm
02:32 -15.2 °C -16.5 °C 34178.3 hPa South 5.1 km/h 36.2 km/h 85 % 0 mm
02:37 -15.3 °C -16.6 °C 34178.3 hPa South 5.1 km/h 28.5 km/h 85 % 0 mm
02:42 -15.3 °C -16.6 °C 34164.7 hPa SSE 7.7 km/h 28.5 km/h 85 % 0 mm
02:47 -15.4 °C -16.6 °C 34164.7 hPa SSW 7.7 km/h 23.3 km/h 86 % 0 mm
02:52 -15.4 °C -16.6 °C 34164.7 hPa South 7.7 km/h 23.3 km/h 86 % 0 mm
02:57 -15.4 °C -16.6 °C 34154.6 hPa South 5.1 km/h 23.3 km/h 86 % 0 mm
03:02 -15.4 °C -16.6 °C 34154.6 hPa SW 10.3 km/h 23.3 km/h 86 % 0 mm
03:07 -15.3 °C -16.5 °C 34154.6 hPa South 18.2 km/h 18.2 km/h 86 % 0 mm
03:12 -15.2 °C -16.4 °C 34144.4 hPa SSW 12.9 km/h 18.2 km/h 86 % 0 mm
03:17 -15.2 °C -16.3 °C 34144.4 hPa South 12.9 km/h 25.9 km/h 86 % 0 mm
03:22 -15.1 °C -16.2 °C 34144.4 hPa SSE 10.3 km/h 25.9 km/h 86 % 0 mm
03:32 -14.8 °C -16.1 °C 34130.9 hPa South 12.9 km/h 25.9 km/h 85 % 0 mm
03:37 -14.6 °C -16 °C 34120.7 hPa SSE 12.9 km/h 33.6 km/h 84 % 0 mm
03:52 -14.1 °C -15.6 °C 34107.2 hPa South 20.8 km/h 38.8 km/h 83 % 0 mm
03:57 -13.9 °C -15.6 °C 34107.2 hPa South 18.2 km/h 38.8 km/h 82 % 0 mm
04:02 -13.8 °C -15.4 °C 34097 hPa SW 18.2 km/h 44.1 km/h 82 % 0 mm
04:12 -13.6 °C -15.3 °C 34097 hPa SSW 33.6 km/h 44.1 km/h 81 % 0 mm
04:18 -13.6 °C -15.3 °C 34097 hPa SSE 18.2 km/h 51.8 km/h 81 % 0 mm
04:27 -13.4 °C -15.2 °C 34097 hPa SSW 25.9 km/h 51.8 km/h 80 % 0 mm
04:32 -13.3 °C -15.1 °C 34097 hPa South 38.8 km/h 51.8 km/h 80 % 0 mm
04:37 -13.2 °C -15.1 °C 34097 hPa SW 54.4 km/h 54.4 km/h 79 % 0 mm
04:42 -13.2 °C -15 °C 34097 hPa SW 69.8 km/h 72.6 km/h 80 % 0 mm
04:47 -13.2 °C -14.9 °C 34086.9 hPa SSW 36.2 km/h 77.7 km/h 81 % 0 mm
04:52 -13.2 °C -14.9 °C 34086.9 hPa SSW 77.7 km/h 77.7 km/h 80 % 0 mm
04:57 -13.1 °C -14.9 °C 34086.9 hPa WSW 64.7 km/h 77.7 km/h 80 % 0 mm
05:02 -13.1 °C -14.9 °C 34073.3 hPa SW 51.8 km/h 98.3 km/h 80 % 0 mm
05:12 -13.1 °C -14.8 °C 34073.3 hPa SW 51.8 km/h 85.5 km/h 81 % 0 mm
05:17 -13.1 °C -14.8 °C 34073.3 hPa SW 69.8 km/h 85.5 km/h 81 % 0 mm
05:22 -12.9 °C -14.8 °C 34073.3 hPa WSW 80.3 km/h 106.2 km/h 80 % 7.62 mm
05:32 -13.1 °C -14.7 °C 34073.3 hPa SW 67.3 km/h 106.2 km/h 82 % 7.62 mm
05:42 -13.3 °C -14.8 °C 34073.3 hPa West 38.8 km/h 101.1 km/h 83 % 7.62 mm
05:52 -13.5 °C -15 °C 34073.3 hPa WSW 57 km/h 101.1 km/h 83 % 7.62 mm
05:57 -13.6 °C -15 °C 34086.9 hPa SW 36.2 km/h 101.1 km/h 84 % 7.62 mm
06:02 -13.8 °C -15 °C 34086.9 hPa SW 95.8 km/h 101.1 km/h 86 % 7.62 mm
06:07 -13.8 °C -15.1 °C 34086.9 hPa WSW 67.3 km/h 101.1 km/h 86 % 7.62 mm
06:17 -14.1 °C -15.1 °C 34107.2 hPa SW 49.2 km/h 98.3 km/h 88 % 7.62 mm
06:22 -14.2 °C -15.2 °C 34107.2 hPa West 57 km/h 93.2 km/h 88 % 0 mm
06:27 -14.2 °C -15.2 °C 34107.2 hPa SW 57 km/h 93.2 km/h 88 % 0 mm
06:32 -14.2 °C -15.3 °C 34120.7 hPa SW 69.8 km/h 93.2 km/h 87 % 0 mm
06:37 -14.1 °C -15.2 °C 34120.7 hPa WNW 25.9 km/h 90.6 km/h 87 % 0 mm
06:42 -14.1 °C -15.3 °C 34130.9 hPa WSW 59.5 km/h 90.6 km/h 86 % 0 mm
06:47 -14.1 °C -15.3 °C 34144.4 hPa WSW 69.8 km/h 90.6 km/h 85 % 0 mm
06:52 -14.1 °C -15.3 °C 34154.6 hPa West 59.5 km/h 103.6 km/h 86 % 0 mm
07:02 -14.3 °C -15.5 °C 34178.3 hPa West 41.4 km/h 103.6 km/h 86 % 0 mm
07:07 -14.3 °C -15.4 °C 34178.3 hPa WSW 33.6 km/h 103.6 km/h 87 % 0 mm
07:12 -14.4 °C -15.5 °C 34178.3 hPa WSW 64.7 km/h 98.3 km/h 87 % 0 mm
07:17 -14.5 °C -15.5 °C 34198.6 hPa West 59.5 km/h 98.3 km/h 88 % 0 mm
07:27 -14.7 °C -15.5 °C 34212.1 hPa WNW 28.5 km/h 93.2 km/h 90 % 0 mm
07:32 -14.7 °C -15.5 °C 34212.1 hPa WSW 31.1 km/h 93.2 km/h 90 % 0 mm
07:42 -14.7 °C -15.5 °C 34235.8 hPa West 36.2 km/h 67.3 km/h 90 % 0 mm
07:52 -14.7 °C -15.6 °C 34235.8 hPa WSW 25.9 km/h 64.7 km/h 90 % 0 mm
07:57 -14.8 °C -15.6 °C 34246 hPa WSW 36.2 km/h 64.7 km/h 90 % 0 mm
08:02 -14.8 °C -15.6 °C 34246 hPa WSW 41.4 km/h 54.4 km/h 90 % 0 mm
08:12 -14.8 °C -15.8 °C 34256.2 hPa West 28.5 km/h 54.4 km/h 88 % 0 mm
08:22 -14.8 °C -15.8 °C 34256.2 hPa WSW 23.3 km/h 49.2 km/h 88 % 0 mm
08:32 -14.8 °C -15.8 °C 34269.7 hPa SW 20.8 km/h 49.2 km/h 88 % 0 mm
08:42 -14.9 °C -15.9 °C 34279.9 hPa WSW 20.8 km/h 49.2 km/h 88 % 0 mm
08:47 -14.9 °C -15.9 °C 34269.7 hPa SW 15.6 km/h 49.2 km/h 88 % 0 mm
08:52 -14.9 °C -15.9 °C 34279.9 hPa WSW 12.9 km/h 41.4 km/h 88 % 0 mm
08:57 -14.9 °C -15.9 °C 34279.9 hPa SW 18.2 km/h 41.4 km/h 88 % 0 mm
09:02 -14.9 °C -15.9 °C 34279.9 hPa SW 25.9 km/h 41.4 km/h 88 % 0 mm
09:12 -14.9 °C -15.9 °C 34293.4 hPa WNW 28.5 km/h 44.1 km/h 88 % 0 mm
09:17 -14.9 °C -15.9 °C 34293.4 hPa SW 18.2 km/h 44.1 km/h 88 % 0 mm
09:27 -14.9 °C -15.9 °C 34293.4 hPa West 15.6 km/h 44.1 km/h 88 % 0 mm
09:37 -14.9 °C -15.9 °C 34293.4 hPa SSW 15.6 km/h 44.1 km/h 88 % 0 mm
09:47 -14.9 °C -15.9 °C 34293.4 hPa SW 20.8 km/h 36.2 km/h 88 % 0 mm
09:57 -14.8 °C -15.8 °C 34303.6 hPa WSW 31.1 km/h 41.4 km/h 88 % 0 mm
10:02 -14.8 °C -15.8 °C 34293.4 hPa SW 18.2 km/h 41.4 km/h 88 % 0 mm
10:12 -14.7 °C -15.7 °C 34293.4 hPa SW 23.3 km/h 38.8 km/h 88 % 0 mm
10:17 -14.7 °C -15.7 °C 34293.4 hPa SSW 20.8 km/h 38.8 km/h 88 % 0 mm
10:22 -14.6 °C -15.6 °C 34293.4 hPa SSW 12.9 km/h 36.2 km/h 88 % 0 mm
10:32 -14.7 °C -15.7 °C 34293.4 hPa SW 23.3 km/h 36.2 km/h 88 % 0 mm
10:42 -14.6 °C -15.6 °C 34293.4 hPa WSW 25.9 km/h 36.2 km/h 88 % 0 mm
10:47 -14.6 °C -15.6 °C 34293.4 hPa SW 23.3 km/h 36.2 km/h 88 % 0 mm
10:57 -14.4 °C -15.4 °C 34293.4 hPa SW 28.5 km/h 38.8 km/h 88 % 0 mm
11:02 -14.3 °C -15.4 °C 34293.4 hPa WSW 15.6 km/h 36.2 km/h 87 % 0 mm
11:12 -14.2 °C -15.4 °C 34293.4 hPa SW 18.2 km/h 36.2 km/h 86 % 0 mm
11:17 -14.1 °C -15.3 °C 34293.4 hPa SW 15.6 km/h 36.2 km/h 86 % 0 mm
11:22 -14.1 °C -15.3 °C 34293.4 hPa SW 25.9 km/h 41.4 km/h 85 % 0 mm
11:32 -14.1 °C -15.2 °C 34279.9 hPa SSW 23.3 km/h 44.1 km/h 87 % 0 mm
11:37 -14.1 °C -15.2 °C 34279.9 hPa SSW 20.8 km/h 44.1 km/h 87 % 0 mm
11:42 -14 °C -15.1 °C 34279.9 hPa SW 36.2 km/h 41.4 km/h 87 % 0 mm
11:52 -13.9 °C -15.2 °C 34269.7 hPa WSW 31.1 km/h 41.4 km/h 85 % 0 mm
12:02 -13.8 °C -15.1 °C 34256.2 hPa WSW 23.3 km/h 51.8 km/h 85 % 0 mm
12:12 -13.7 °C -15.1 °C 34256.2 hPa SW 18.2 km/h 51.8 km/h 84 % 0 mm
12:17 -13.7 °C -15.2 °C 34256.2 hPa SW 28.5 km/h 51.8 km/h 83 % 0 mm
12:22 -13.7 °C -15.2 °C 34256.2 hPa SW 23.3 km/h 49.2 km/h 83 % 0 mm
12:32 -13.6 °C -15.2 °C 34246 hPa WSW 31.1 km/h 49.2 km/h 82 % 0 mm
12:42 -13.5 °C -15.2 °C 34246 hPa WSW 36.2 km/h 46.7 km/h 81 % 0 mm
12:47 -13.4 °C -15 °C 34246 hPa SW 28.5 km/h 46.7 km/h 82 % 0 mm
12:52 -13.4 °C -15 °C 34235.8 hPa SW 36.2 km/h 46.7 km/h 82 % 0 mm
12:57 -13.3 °C -15.1 °C 34235.8 hPa SSW 25.9 km/h 46.7 km/h 81 % 0 mm
13:02 -13.4 °C -15.1 °C 34235.8 hPa WSW 31.1 km/h 46.7 km/h 81 % 0 mm
13:12 -13.4 °C -15.1 °C 34235.8 hPa SW 33.6 km/h 49.2 km/h 81 % 0 mm
13:17 -13.4 °C -15.1 °C 34235.8 hPa SW 49.2 km/h 49.2 km/h 81 % 0 mm
13:22 -13.3 °C -14.9 °C 34235.8 hPa SW 38.8 km/h 49.2 km/h 82 % 0 mm
13:32 -13.3 °C -14.9 °C 34222.3 hPa SW 28.5 km/h 51.8 km/h 82 % 0 mm
13:37 -13.4 °C -15 °C 34222.3 hPa SSW 15.6 km/h 51.8 km/h 82 % 0 mm
13:47 -13.4 °C -15.1 °C 34212.1 hPa SW 28.5 km/h 51.8 km/h 81 % 0 mm
13:52 -13.4 °C -15.1 °C 34212.1 hPa SW 33.6 km/h 49.2 km/h 81 % 0 mm
13:57 -13.4 °C -15 °C 34198.6 hPa SW 31.1 km/h 49.2 km/h 82 % 0 mm
14:07 -13.3 °C -15 °C 34198.6 hPa SW 20.8 km/h 49.2 km/h 81 % 0 mm
14:12 -13.3 °C -14.9 °C 34188.4 hPa SW 33.6 km/h 49.2 km/h 82 % 0 mm
14:17 -13.3 °C -14.9 °C 34178.3 hPa SW 25.9 km/h 51.8 km/h 82 % 0 mm
14:22 -13.3 °C -14.9 °C 34178.3 hPa SSW 25.9 km/h 51.8 km/h 82 % 0 mm
14:27 -13.3 °C -14.8 °C 34178.3 hPa SSW 20.8 km/h 51.8 km/h 83 % 0 mm
14:32 -13.3 °C -14.9 °C 34164.7 hPa SW 46.7 km/h 46.7 km/h 82 % 0 mm
14:42 -13.2 °C -14.9 °C 34164.7 hPa SW 38.8 km/h 41.4 km/h 81 % 0 mm
14:47 -13.3 °C -15 °C 34154.6 hPa SW 36.2 km/h 62.1 km/h 81 % 0 mm
14:52 -13.3 °C -14.9 °C 34144.4 hPa SW 36.2 km/h 62.1 km/h 82 % 0 mm
14:57 -13.3 °C -15 °C 34144.4 hPa SW 46.7 km/h 62.1 km/h 81 % 0 mm
15:02 -13.3 °C -14.9 °C 34144.4 hPa SW 38.8 km/h 54.4 km/h 82 % 0 mm
15:12 -13.3 °C -14.9 °C 34130.9 hPa SW 25.9 km/h 54.4 km/h 82 % 0 mm
15:17 -13.3 °C -15.1 °C 34130.9 hPa SW 25.9 km/h 54.4 km/h 81 % 0 mm
15:22 -13.4 °C -15.1 °C 34130.9 hPa SW 33.6 km/h 54.4 km/h 81 % 0 mm
15:32 -13.4 °C -15 °C 34120.7 hPa SW 20.8 km/h 44.1 km/h 82 % 0 mm
15:42 -13.4 °C -15.1 °C 34107.2 hPa South 18.2 km/h 44.1 km/h 82 % 0 mm
15:47 -13.4 °C -15.1 °C 34107.2 hPa SSW 15.6 km/h 41.4 km/h 82 % 0 mm
15:52 -13.4 °C -15.1 °C 34107.2 hPa South 23.3 km/h 41.4 km/h 82 % 0 mm
15:57 -13.4 °C -15.1 °C 34107.2 hPa SW 23.3 km/h 41.4 km/h 82 % 0 mm
16:02 -13.4 °C -15.1 °C 34097 hPa South 15.6 km/h 33.6 km/h 82 % 0 mm
16:07 -13.4 °C -15.2 °C 34097 hPa SSW 23.3 km/h 33.6 km/h 81 % 0 mm
16:12 -13.4 °C -15.1 °C 34097 hPa SSW 20.8 km/h 33.6 km/h 81 % 0 mm
16:17 -13.4 °C -15.2 °C 34097 hPa SSW 23.3 km/h 41.4 km/h 81 % 0 mm
16:22 -13.4 °C -15.2 °C 34086.9 hPa SSW 18.2 km/h 41.4 km/h 81 % 0 mm
16:27 -13.4 °C -15.2 °C 34086.9 hPa SSW 28.5 km/h 44.1 km/h 81 % 0 mm
16:32 -13.4 °C -15.2 °C 34086.9 hPa South 18.2 km/h 44.1 km/h 81 % 0 mm
16:42 -13.5 °C -15.2 °C 34073.3 hPa SSW 20.8 km/h 46.7 km/h 81 % 0 mm
16:47 -13.6 °C -15.3 °C 34073.3 hPa SSW 23.3 km/h 46.7 km/h 81 % 0 mm
16:52 -13.6 °C -15.3 °C 34063.2 hPa SW 25.9 km/h 46.7 km/h 81 % 0 mm
16:57 -13.6 °C -15.3 °C 34063.2 hPa SSW 15.6 km/h 33.6 km/h 81 % 0 mm
17:02 -13.6 °C -15.3 °C 34063.2 hPa SW 28.5 km/h 33.6 km/h 81 % 0 mm
17:12 -13.7 °C -15.3 °C 34049.6 hPa SSW 12.9 km/h 33.6 km/h 81 % 0 mm
17:17 -13.7 °C -15.4 °C 34049.6 hPa SSW 18.2 km/h 33.6 km/h 81 % 0 mm
17:22 -13.7 °C -15.4 °C 34039.5 hPa SSW 15.6 km/h 33.6 km/h 81 % 0 mm
17:27 -13.7 °C -15.3 °C 34039.5 hPa South 18.2 km/h 33.6 km/h 82 % 0 mm
17:32 -13.8 °C -15.4 °C 34039.5 hPa SSW 10.3 km/h 33.6 km/h 81 % 0 mm
17:42 -13.8 °C -15.4 °C 34029.3 hPa South 10.3 km/h 31.1 km/h 82 % 0 mm
17:47 -13.9 °C -15.6 °C 34029.3 hPa SSW 12.9 km/h 31.1 km/h 82 % 0 mm
17:52 -13.9 °C -15.6 °C 34029.3 hPa SSE 12.9 km/h 28.5 km/h 82 % 0 mm
17:57 -14.1 °C -15.7 °C 34015.8 hPa South 10.3 km/h 28.5 km/h 82 % 0 mm
18:07 -14.1 °C -15.7 °C 34005.6 hPa South 10.3 km/h 28.5 km/h 82 % 0 mm
18:12 -14.2 °C -15.7 °C 34005.6 hPa South 12.9 km/h 28.5 km/h 83 % 0 mm
18:17 -14.2 °C -15.7 °C 33992.1 hPa SE 12.9 km/h 28.5 km/h 83 % 0 mm
18:22 -14.2 °C -15.7 °C 33992.1 hPa South 10.3 km/h 28.5 km/h 83 % 0 mm
18:32 -14.3 °C -15.7 °C 33981.9 hPa South 7.7 km/h 25.9 km/h 84 % 0 mm
18:37 -14.3 °C -15.7 °C 33971.7 hPa SE 10.3 km/h 25.9 km/h 84 % 0 mm
18:42 -14.4 °C -15.8 °C 33971.7 hPa SSE 5.1 km/h 20.8 km/h 84 % 0 mm
18:47 -14.4 °C -15.8 °C 33958.2 hPa SSE 10.3 km/h 20.8 km/h 84 % 0 mm
18:57 -14.5 °C -15.9 °C 33958.2 hPa South 10.3 km/h 20.8 km/h 84 % 0 mm
19:02 -14.6 °C -15.9 °C 33948 hPa SSE 7.7 km/h 20.8 km/h 84 % 0 mm
19:07 -14.6 °C -15.9 °C 33948 hPa South 15.6 km/h 20.8 km/h 84 % 0 mm
19:17 -14.6 °C -15.9 °C 33937.9 hPa South 10.3 km/h 25.9 km/h 84 % 0 mm
19:22 -14.6 °C -15.9 °C 33937.9 hPa South 18.2 km/h 25.9 km/h 84 % 0 mm
19:27 -14.6 °C -15.9 °C 33937.9 hPa SW 15.6 km/h 25.9 km/h 84 % 0 mm
19:32 -14.6 °C -15.9 °C 33924.3 hPa SSE 10.3 km/h 25.9 km/h 84 % 0 mm
19:42 -14.6 °C -15.8 °C 33914.2 hPa SSW 10.3 km/h 23.3 km/h 85 % 0 mm
19:47 -14.6 °C -15.9 °C 33914.2 hPa SE 5.1 km/h 23.3 km/h 84 % 0 mm
19:52 -14.6 °C -15.9 °C 33900.6 hPa SE 10.3 km/h 25.9 km/h 85 % 0 mm
19:57 -14.6 °C -15.9 °C 33900.6 hPa SE 10.3 km/h 25.9 km/h 85 % 0 mm
20:02 -14.7 °C -15.9 °C 33890.5 hPa South 5.1 km/h 23.3 km/h 85 % 0 mm
20:07 -14.7 °C -15.9 °C 33890.5 hPa SSE 5.1 km/h 23.3 km/h 86 % 0 mm
20:12 -14.8 °C -16 °C 33880.3 hPa SSE 5.1 km/h 18.2 km/h 86 % 0 mm
20:17 -14.8 °C -16.1 °C 33880.3 hPa South 7.7 km/h 18.2 km/h 86 % 0 mm
20:22 -14.8 °C -16.1 °C 33866.8 hPa SE 5.1 km/h 28.5 km/h 86 % 0 mm
20:27 -14.8 °C -16.1 °C 33856.6 hPa South 7.7 km/h 28.5 km/h 86 % 0 mm
20:32 -14.8 °C -16.1 °C 33843.1 hPa SE 7.7 km/h 28.5 km/h 86 % 0 mm
20:37 -14.8 °C -16.1 °C 33843.1 hPa SSE 15.6 km/h 28.5 km/h 86 % 0 mm
20:42 -14.8 °C -16.1 °C 33832.9 hPa SE 10.3 km/h 28.5 km/h 86 % 0 mm
20:47 -14.8 °C -16.1 °C 33832.9 hPa SSE 7.7 km/h 28.5 km/h 86 % 0 mm
20:52 -14.8 °C -16.1 °C 33822.8 hPa SSE 5.1 km/h 28.5 km/h 86 % 0 mm
20:57 -14.8 °C -16 °C 33809.2 hPa SE 5.1 km/h 28.5 km/h 86 % 0 mm
21:07 -14.8 °C -16 °C 33809.2 hPa SE 18.2 km/h 28.5 km/h 86 % 0 mm
21:12 -14.8 °C -16 °C 33809.2 hPa SSE 10.3 km/h 28.5 km/h 86 % 0 mm
21:17 -14.8 °C -16 °C 33799.1 hPa SE 10.3 km/h 28.5 km/h 86 % 0 mm
21:22 -14.8 °C -16.1 °C 33799.1 hPa SSE 12.9 km/h 28.5 km/h 86 % 0 mm
21:27 -14.8 °C -16.1 °C 33799.1 hPa South 10.3 km/h 28.5 km/h 86 % 0 mm
21:37 -14.7 °C -15.9 °C 33788.9 hPa South 7.7 km/h 28.5 km/h 86 % 0 mm
21:42 -14.7 °C -15.9 °C 33788.9 hPa South 7.7 km/h 33.6 km/h 86 % 0 mm
21:47 -14.6 °C -15.9 °C 33775.4 hPa SSW 20.8 km/h 33.6 km/h 85 % 0 mm
21:52 -14.6 °C -15.9 °C 33765.2 hPa SSE 7.7 km/h 33.6 km/h 85 % 0 mm
21:57 -14.6 °C -15.8 °C 33765.2 hPa South 10.3 km/h 33.6 km/h 85 % 0 mm
22:02 -14.6 °C -15.8 °C 33751.6 hPa SE 15.6 km/h 31.1 km/h 85 % 0 mm
22:12 -14.4 °C -15.9 °C 33741.5 hPa SSW 15.6 km/h 33.6 km/h 83 % 0 mm
22:17 -14.3 °C -15.8 °C 33741.5 hPa South 20.8 km/h 33.6 km/h 83 % 0 mm
22:22 -14.3 °C -15.8 °C 33741.5 hPa SE 10.3 km/h 36.2 km/h 83 % 0 mm
22:27 -14.3 °C -15.8 °C 33731.3 hPa SW 18.2 km/h 36.2 km/h 83 % 0 mm
22:32 -14.4 °C -15.9 °C 33731.3 hPa SSE 7.7 km/h 36.2 km/h 83 % 0 mm
22:42 -14.4 °C -15.9 °C 33717.8 hPa SSE 7.7 km/h 28.5 km/h 83 % 0 mm
22:47 -14.4 °C -15.9 °C 33707.6 hPa SE 12.9 km/h 28.5 km/h 83 % 0 mm
22:52 -14.4 °C -15.9 °C 33707.6 hPa SSE 10.3 km/h 23.3 km/h 83 % 0 mm
23:02 -14.4 °C -15.9 °C 33694.1 hPa SSE 23.3 km/h 31.1 km/h 83 % 0 mm
23:07 -14.4 °C -15.9 °C 33694.1 hPa SE 10.3 km/h 31.1 km/h 83 % 0 mm
23:17 -14.6 °C -15.9 °C 33683.9 hPa South 12.9 km/h 33.6 km/h 84 % 0 mm
23:22 -14.6 °C -15.9 °C 33673.8 hPa South 15.6 km/h 31.1 km/h 84 % 0 mm
23:27 -14.6 °C -15.9 °C 33673.8 hPa SSE 10.3 km/h 31.1 km/h 84 % 0 mm
23:32 -14.5 °C -15.9 °C 33673.8 hPa SSE 10.3 km/h 33.6 km/h 84 % 0 mm
23:37 -14.5 °C -16 °C 33660.2 hPa SSW 20.8 km/h 33.6 km/h 83 % 0 mm
23:42 -14.4 °C -15.9 °C 33660.2 hPa SW 23.3 km/h 33.6 km/h 83 % 0 mm
23:47 -14.4 °C -15.9 °C 33660.2 hPa SSW 12.9 km/h 33.6 km/h 83 % 0 mm
23:52 -14.4 °C -15.9 °C 33650.1 hPa South 15.6 km/h 31.1 km/h 83 % 7.62 mm
23:57 -14.4 °C -15.9 °C 33650.1 hPa South 15.6 km/h 31.1 km/h 83 % 7.62 mm
Meteo18
Compliments of Weather Underground - 4 mb

Script developed by  Jim McMurry - jmcmurry@mwt.net Adapted for the template by  Wim van der Kuil - Leuven-Template.eu

You find our weather info also at:

European Weather Network

Weather Underground

Equipment we use:

Weather-station
Davis Vue

Weather-program
Meteobridge

Weather-server
Raspberry PI 2 B+

Provider
1 and 1

Davis Vue

Meteobridge

Raspberry PI 2 B+

1 and 1